Time;durP1;ratioP1;P1;durP2;ratioP2;P2;SDS_P1;SDS_P2;PMS_P1;PMS_P2;Temp;Humidity;BMP_temperature;BMP_pressure;BME280_temperature;BME280_humidity;BME280_pressure;Samples;Min_cycle;Max_cycle;Signal;HPM_P1;HPM_P2
2022/09/05 00:02:31;;;;;;;5.20;4.37;;;16.40;99.90;;;;;;5072908;28;20459;-62
2022/09/05 00:05:08;;;;;;;4.10;3.70;;;16.40;99.90;;;;;;5072841;28;20538;-62
2022/09/05 00:07:42;;;;;;;6.70;4.20;;;16.40;99.90;;;;;;5072754;28;20988;-62
2022/09/05 00:10:19;;;;;;;4.40;4.00;;;16.20;99.90;;;;;;5072634;28;20450;-62
2022/09/05 00:12:47;;;;;;;4.63;4.23;;;16.30;99.90;;;;;;5072777;28;20457;-62
2022/09/05 00:15:23;;;;;;;4.33;3.97;;;16.20;99.90;;;;;;5072670;28;20450;-62
2022/09/05 00:18:14;;;;;;;4.70;4.20;;;16.10;99.90;;;;;;5072677;28;20453;-61
2022/09/05 00:20:48;;;;;;;7.13;4.40;;;15.90;99.90;;;;;;5072801;28;20457;-62
2022/09/05 00:23:21;;;;;;;4.70;4.27;;;15.80;99.90;;;;;;5072728;28;20455;-62
2022/09/05 00:26:05;;;;;;;4.63;4.23;;;16.00;99.90;;;;;;5072634;28;20447;-62
2022/09/05 00:28:45;;;;;;;4.07;3.67;;;15.90;99.90;;;;;;5072495;28;20451;-62
2022/09/05 00:31:23;;;;;;;6.50;5.10;;;15.80;99.90;;;;;;5072758;28;20448;-62
2022/09/05 00:34:04;;;;;;;7.77;4.30;;;15.80;99.90;;;;;;5072635;28;20943;-62
2022/09/05 00:36:41;;;;;;;4.63;4.23;;;15.70;99.90;;;;;;5072476;28;20451;-62
2022/09/05 00:39:14;;;;;;;5.00;4.30;;;15.70;99.90;;;;;;5072290;28;20479;-62
2022/09/05 00:41:41;;;;;;;4.00;3.70;;;15.80;99.90;;;;;;5072360;28;20443;-62
2022/09/05 00:44:12;;;;;;;5.80;4.43;;;15.80;99.90;;;;;;5072438;28;20469;-62
2022/09/05 00:46:48;;;;;;;5.03;4.50;;;15.80;99.90;;;;;;5072358;28;20457;-62
2022/09/05 00:49:21;;;;;;;7.37;4.87;;;15.60;99.90;;;;;;5075262;28;20474;-62
2022/09/05 00:51:55;;;;;;;4.33;3.93;;;15.50;99.90;;;;;;5076284;28;20452;-62
2022/09/05 00:54:37;;;;;;;4.50;4.17;;;15.50;99.90;;;;;;5076197;28;20448;-62
2022/09/05 00:57:21;;;;;;;6.77;4.10;;;15.40;99.90;;;;;;5076059;28;20447;-62
2022/09/05 01:00:10;;;;;;;6.07;3.60;;;15.40;99.90;;;;;;5075792;28;20479;-62
2022/09/05 01:02:55;;;;;;;4.70;4.20;;;15.40;99.90;;;;;;5075846;28;20954;-62
2022/09/05 01:05:37;;;;;;;6.63;3.97;;;15.40;99.90;;;;;;5075964;28;20521;-62
2022/09/05 01:08:18;;;;;;;4.60;4.20;;;15.40;99.90;;;;;;5075675;28;20502;-62
2022/09/05 01:10:52;;;;;;;5.37;4.97;;;15.40;99.90;;;;;;5075933;28;20447;-62
2022/09/05 01:13:29;;;;;;;4.43;4.07;;;15.30;99.90;;;;;;5075768;28;20447;-62
2022/09/05 01:16:06;;;;;;;4.63;4.23;;;15.40;99.90;;;;;;5075735;28;20534;-62
2022/09/05 01:18:49;;;;;;;4.80;4.40;;;15.30;99.90;;;;;;5075523;28;21037;-62
2022/09/05 01:21:37;;;;;;;4.90;4.50;;;15.20;99.90;;;;;;5075729;28;20483;-62
2022/09/05 01:24:21;;;;;;;4.80;4.40;;;15.30;99.90;;;;;;5075602;28;20490;-62
2022/09/05 01:27:28;;;;;;;4.63;4.13;;;15.40;99.90;;;;;;5075464;28;20810;-62
2022/09/05 01:29:58;;;;;;;4.93;4.40;;;15.40;99.90;;;;;;5075490;28;20451;-62
2022/09/05 01:32:34;;;;;;;9.40;4.50;;;15.30;99.90;;;;;;5075448;28;20453;-62
2022/09/05 01:35:43;;;;;;;5.90;4.20;;;15.10;99.90;;;;;;5075357;28;20451;-62
2022/09/05 01:38:15;;;;;;;5.60;4.70;;;15.10;99.90;;;;;;5071752;28;20451;-62
2022/09/05 01:40:47;;;;;;;6.20;5.40;;;15.20;99.90;;;;;;5075219;28;20483;-62
2022/09/05 01:43:24;;;;;;;5.00;4.20;;;15.20;99.90;;;;;;5075194;28;20803;-62
2022/09/05 01:45:54;;;;;;;5.27;4.77;;;15.20;99.90;;;;;;5075072;28;20533;-62
2022/09/05 01:48:29;;;;;;;5.50;4.83;;;15.10;99.90;;;;;;5074982;28;20467;-62
2022/09/05 01:51:10;;;;;;;5.70;4.73;;;15.00;99.90;;;;;;5074997;28;20454;-62
2022/09/05 01:53:44;;;;;;;5.57;4.97;;;14.90;99.90;;;;;;5074958;28;20447;-62
2022/09/05 01:56:27;;;;;;;6.47;5.17;;;14.90;99.90;;;;;;5074903;28;20476;-62
2022/09/05 01:59:11;;;;;;;5.00;4.50;;;15.00;99.90;;;;;;5074463;28;20832;-62
2022/09/05 02:01:55;;;;;;;4.50;4.10;;;15.00;99.90;;;;;;5074921;28;20454;-61
2022/09/05 02:04:40;;;;;;;5.73;5.03;;;14.90;99.90;;;;;;5074713;28;21013;-62
2022/09/05 02:07:21;;;;;;;5.30;4.80;;;15.00;99.90;;;;;;5074928;28;20546;-61
2022/09/05 02:10:06;;;;;;;5.37;4.93;;;14.90;99.90;;;;;;5074743;28;20447;-62
2022/09/05 02:12:39;;;;;;;5.67;5.17;;;14.90;99.90;;;;;;5074601;28;20458;-62
2022/09/05 02:15:15;;;;;;;5.40;4.80;;;14.90;99.90;;;;;;5074560;28;20543;-62
2022/09/05 02:17:50;;;;;;;5.50;5.00;;;14.90;99.90;;;;;;5074571;28;21001;-62
2022/09/05 02:20:22;;;;;;;5.53;5.00;;;15.10;99.90;;;;;;5074441;28;20558;-62
2022/09/05 02:22:59;;;;;;;6.03;5.10;;;15.00;99.90;;;;;;5074784;28;20508;-62
2022/09/05 02:25:30;;;;;;;5.40;5.00;;;14.80;99.90;;;;;;5074476;28;20493;-62
2022/09/05 02:28:05;;;;;;;4.73;4.43;;;14.70;99.90;;;;;;5074544;28;20547;-62
2022/09/05 02:30:39;;;;;;;6.03;5.40;;;14.70;99.90;;;;;;5074377;28;20468;-62
2022/09/05 02:33:13;;;;;;;5.67;5.03;;;14.70;99.90;;;;;;5074271;28;20802;-62
2022/09/05 02:35:47;;;;;;;5.57;5.00;;;14.70;99.90;;;;;;5074098;28;20485;-62
2022/09/05 02:38:20;;;;;;;7.63;5.37;;;14.70;99.90;;;;;;5074003;28;20450;-62
2022/09/05 02:40:55;;;;;;;5.87;5.37;;;14.60;99.90;;;;;;5074129;28;20483;-62
2022/09/05 02:43:32;;;;;;;4.80;4.30;;;14.70;99.90;;;;;;5074063;28;20535;-62
2022/09/05 02:46:05;;;;;;;5.20;4.70;;;14.60;99.90;;;;;;5073835;28;20453;-62
2022/09/05 02:48:46;;;;;;;6.00;5.40;;;14.50;99.90;;;;;;5073738;28;20562;-62
2022/09/05 02:51:16;;;;;;;5.43;5.03;;;14.50;99.90;;;;;;5073959;28;20453;-62
2022/09/05 02:53:48;;;;;;;5.73;5.20;;;14.50;99.90;;;;;;5073823;28;20546;-62
2022/09/05 02:56:31;;;;;;;6.27;5.27;;;14.40;99.90;;;;;;5073704;28;20447;-61
2022/09/05 02:59:07;;;;;;;5.70;5.20;;;14.40;99.90;;;;;;5073825;28;20454;-61
2022/09/05 03:01:51;;;;;;;6.30;5.10;;;14.40;99.90;;;;;;5073759;28;20454;-62
2022/09/05 03:04:29;;;;;;;5.37;4.97;;;14.40;99.90;;;;;;5073665;28;20452;-62
2022/09/05 03:07:21;;;;;;;7.13;5.70;;;14.40;99.90;;;;;;5073372;28;21012;-61
2022/09/05 03:10:07;;;;;;;6.60;5.20;;;14.30;99.90;;;;;;5073240;28;20539;-62
2022/09/05 03:13:13;;;;;;;6.57;5.40;;;14.30;99.90;;;;;;5073397;28;20453;-62
2022/09/05 03:16:21;;;;;;;6.77;5.20;;;14.30;99.90;;;;;;5073795;28;20459;-62
2022/09/05 03:19:26;;;;;;;7.80;4.83;;;14.40;99.90;;;;;;5073209;28;20458;-62
2022/09/05 03:22:30;;;;;;;6.90;5.20;;;14.60;99.90;;;;;;5073455;28;20798;-62
2022/09/05 03:25:31;;;;;;;4.97;4.57;;;14.40;99.90;;;;;;5073436;28;20447;-62
2022/09/05 03:28:50;;;;;;;7.77;5.50;;;14.40;99.90;;;;;;5073163;28;20454;-62
2022/09/05 03:31:33;;;;;;;4.70;4.30;;;14.40;99.90;;;;;;5073127;28;20469;-62
2022/09/05 03:34:27;;;;;;;18.03;6.30;;;14.50;99.90;;;;;;5073022;28;20881;-62
2022/09/05 03:37:26;;;;;;;7.30;5.13;;;14.50;99.90;;;;;;5073003;28;20453;-62
2022/09/05 03:40:33;;;;;;;5.27;4.80;;;14.30;99.90;;;;;;5072978;28;20489;-62
2022/09/05 03:43:28;;;;;;;5.77;4.77;;;14.30;99.90;;;;;;5073005;28;20950;-62
2022/09/05 03:46:09;;;;;;;9.27;5.93;;;14.20;99.90;;;;;;5073083;28;20483;-62
2022/09/05 03:48:52;;;;;;;5.03;4.63;;;14.30;99.90;;;;;;5072714;28;20536;-62
2022/09/05 03:51:43;;;;;;;6.47;4.93;;;14.20;99.90;;;;;;5072837;28;20960;-61
2022/09/05 03:54:33;;;;;;;5.77;5.20;;;14.10;99.90;;;;;;5072975;28;20447;-62
2022/09/05 03:57:22;;;;;;;5.30;4.80;;;14.00;99.90;;;;;;5072627;28;20972;-61
2022/09/05 04:00:05;;;;;;;5.93;5.27;;;14.00;99.90;;;;;;5072866;28;21019;-61
2022/09/05 04:02:34;;;;;;;6.03;5.43;;;14.00;99.90;;;;;;5072905;28;20861;-62
2022/09/05 04:05:04;;;;;;;5.20;4.80;;;14.00;99.90;;;;;;5072713;28;20857;-62
2022/09/05 04:07:39;;;;;;;5.97;4.70;;;14.10;99.90;;;;;;5072617;28;20538;-62
2022/09/05 04:10:11;;;;;;;8.90;5.07;;;14.20;99.90;;;;;;5073028;28;20457;-62
2022/09/05 04:12:49;;;;;;;5.30;4.90;;;14.20;99.90;;;;;;5072803;28;20447;-62
2022/09/05 04:15:28;;;;;;;5.37;4.97;;;14.20;99.90;;;;;;5072590;28;20457;-62
2022/09/05 04:17:59;;;;;;;4.77;4.40;;;14.00;99.90;;;;;;5072506;28;20451;-62
2022/09/05 04:20:37;;;;;;;4.63;4.27;;;13.80;99.90;;;;;;5072603;28;20482;-61
2022/09/05 04:23:25;;;;;;;6.90;4.93;;;14.00;99.90;;;;;;5075864;28;20981;-62
2022/09/05 04:26:01;;;;;;;4.90;4.33;;;14.00;99.90;;;;;;5076707;28;20447;-61
2022/09/05 04:28:43;;;;;;;5.00;4.33;;;13.90;99.90;;;;;;5076501;28;20931;-62
2022/09/05 04:31:19;;;;;;;6.17;4.40;;;14.00;99.90;;;;;;5076430;28;20968;-62
2022/09/05 04:33:59;;;;;;;4.80;4.30;;;14.00;99.90;;;;;;5076542;28;20552;-62
2022/09/05 04:36:28;;;;;;;4.80;4.07;;;13.80;99.90;;;;;;5076287;28;20458;-61
2022/09/05 04:39:27;;;;;;;4.33;3.90;;;13.70;99.90;;;;;;5076464;28;20815;-61
2022/09/05 04:42:00;;;;;;;5.90;4.43;;;13.60;99.90;;;;;;5076325;28;20468;-62
2022/09/05 04:44:32;;;;;;;5.10;4.70;;;13.70;99.90;;;;;;5076382;28;20447;-62
2022/09/05 04:47:07;;;;;;;4.80;4.20;;;13.60;99.90;;;;;;5076131;28;20528;-62
2022/09/05 04:49:39;;;;;;;6.30;4.47;;;13.60;99.90;;;;;;5075862;28;20474;-62
2022/09/05 04:52:34;;;;;;;4.40;4.10;;;13.50;99.90;;;;;;5076109;28;20447;-62
2022/09/05 04:55:07;;;;;;;4.17;3.80;;;13.60;99.90;;;;;;5075869;28;20546;-61
2022/09/05 04:57:37;;;;;;;5.10;4.30;;;13.60;99.90;;;;;;5075836;28;20465;-61
2022/09/05 05:00:06;;;;;;;4.17;3.50;;;13.50;99.90;;;;;;5075740;28;20511;-61
2022/09/05 05:02:37;;;;;;;4.80;4.27;;;13.70;99.90;;;;;;5075955;28;20451;-61
2022/09/05 05:05:07;;;;;;;5.13;4.20;;;13.80;99.90;;;;;;5075781;28;20451;-61
2022/09/05 05:07:44;;;;;;;4.70;4.10;;;13.80;99.90;;;;;;5075750;28;20946;-61
2022/09/05 05:10:20;;;;;;;3.57;3.27;;;13.80;99.90;;;;;;5075986;28;20449;-61
2022/09/05 05:12:59;;;;;;;4.37;4.00;;;13.90;99.90;;;;;;5075746;28;20453;-62
2022/09/05 05:15:29;;;;;;;4.17;3.87;;;13.90;99.90;;;;;;5075754;28;20537;-61
2022/09/05 05:18:05;;;;;;;4.23;3.87;;;13.70;99.90;;;;;;5075541;28;20465;-61
2022/09/05 05:20:36;;;;;;;7.23;4.43;;;13.90;99.90;;;;;;5075684;28;20475;-61
2022/09/05 05:23:08;;;;;;;4.60;4.07;;;13.90;99.90;;;;;;5075546;28;20451;-62
2022/09/05 05:25:48;;;;;;;5.50;4.20;;;13.90;99.90;;;;;;5075570;28;20458;-61
2022/09/05 05:28:24;;;;;;;5.10;3.90;;;14.00;99.90;;;;;;5075468;28;20810;-61
2022/09/05 05:30:51;;;;;;;4.47;3.97;;;14.10;99.90;;;;;;5075313;28;20458;-62
2022/09/05 05:33:25;;;;;;;4.13;3.57;;;14.20;99.90;;;;;;5074545;28;20807;-61
2022/09/05 05:35:54;;;;;;;4.20;3.80;;;14.10;99.90;;;;;;5075573;28;20443;-61
2022/09/05 05:38:29;;;;;;;4.60;4.20;;;14.00;99.90;;;;;;5075173;28;20443;-61
2022/09/05 05:41:03;;;;;;;7.70;4.17;;;14.30;99.90;;;;;;5074986;28;20974;-62
2022/09/05 05:43:36;;;;;;;4.20;3.90;;;14.30;99.90;;;;;;5074838;28;20784;-61
2022/09/05 05:46:03;;;;;;;5.47;3.77;;;14.30;99.90;;;;;;5075040;28;20451;-62
2022/09/05 05:48:35;;;;;;;3.90;3.63;;;14.30;99.90;;;;;;5074799;28;20765;-61
2022/09/05 05:51:18;;;;;;;5.57;3.93;;;14.30;99.90;;;;;;5074864;28;20448;-62
2022/09/05 05:53:53;;;;;;;6.00;3.80;;;14.60;99.90;;;;;;5074697;28;20451;-61
2022/09/05 05:56:38;;;;;;;4.10;3.80;;;14.70;99.90;;;;;;5074949;28;20450;-61
2022/09/05 05:59:32;;;;;;;4.23;3.73;;;14.70;99.90;;;;;;5074685;28;20443;-62
2022/09/05 06:02:34;;;;;;;6.80;3.97;;;14.60;99.90;;;;;;5074481;28;21062;-61
2022/09/05 06:05:23;;;;;;;3.70;3.40;;;14.70;99.90;;;;;;5074648;28;20454;-62
2022/09/05 06:08:04;;;;;;;4.90;4.30;;;14.80;99.90;;;;;;5074514;28;20451;-61
2022/09/05 06:11:13;;;;;;;5.27;3.90;;;14.70;99.90;;;;;;5074789;28;20527;-61
2022/09/05 06:14:09;;;;;;;5.30;4.10;;;14.60;99.90;;;;;;5074630;28;20451;-61
2022/09/05 06:17:07;;;;;;;4.57;4.03;;;14.70;99.90;;;;;;5074320;28;20447;-62
2022/09/05 06:20:01;;;;;;;5.90;3.30;;;14.60;99.90;;;;;;5074504;28;20454;-61
2022/09/05 06:22:45;;;;;;;4.77;3.57;;;14.60;99.90;;;;;;5074643;28;20530;-61
2022/09/05 06:25:58;;;;;;;4.90;4.40;;;14.70;99.90;;;;;;5074608;28;20538;-61
2022/09/05 06:28:33;;;;;;;4.50;3.47;;;14.70;99.90;;;;;;5049794;28;20439;-62
2022/09/05 06:31:17;;;;;;;5.60;4.00;;;15.00;99.90;;;;;;5074077;28;20451;-62
2022/09/05 06:33:56;;;;;;;3.77;3.47;;;15.00;99.90;;;;;;5074232;28;20802;-61
2022/09/05 06:36:36;;;;;;;4.17;3.73;;;15.20;99.90;;;;;;5073924;28;20557;-62
2022/09/05 06:39:10;;;;;;;4.27;3.90;;;15.20;99.90;;;;;;5073795;28;20546;-61
2022/09/05 06:41:48;;;;;;;4.00;3.70;;;15.40;99.90;;;;;;5073452;28;20483;-61
2022/09/05 06:44:34;;;;;;;4.43;3.50;;;15.60;99.90;;;;;;5073804;28;20451;-61
2022/09/05 06:47:06;;;;;;;8.30;3.53;;;15.70;99.90;;;;;;5073786;28;20500;-61
2022/09/05 06:49:47;;;;;;;7.40;3.70;;;15.90;99.90;;;;;;5073595;28;20555;-61
2022/09/05 06:52:37;;;;;;;5.00;3.67;;;16.00;99.90;;;;;;5073802;28;20549;-62
2022/09/05 06:55:32;;;;;;;10.40;3.77;;;15.90;99.90;;;;;;5073685;28;20453;-61
2022/09/05 06:58:32;;;;;;;3.80;3.03;;;16.00;99.90;;;;;;5073448;28;20819;-61
2022/09/05 07:00:59;;;;;;;5.60;3.50;;;16.00;99.90;;;;;;5073477;28;20506;-62
2022/09/05 07:03:41;;;;;;;5.90;3.77;;;16.30;99.90;;;;;;5073480;28;20447;-61
2022/09/05 07:06:11;;;;;;;5.10;3.70;;;16.40;99.90;;;;;;5073503;28;20455;-61
2022/09/05 07:08:46;;;;;;;3.97;3.57;;;16.50;99.90;;;;;;5073107;28;20469;-61
2022/09/05 07:11:18;;;;;;;4.77;4.00;;;16.40;99.90;;;;;;5073337;28;20902;-61
2022/09/05 07:13:57;;;;;;;3.33;3.13;;;16.40;99.90;;;;;;5073280;28;20454;-61
2022/09/05 07:16:39;;;;;;;4.17;3.70;;;16.50;99.90;;;;;;5073094;28;20825;-61
2022/09/05 07:19:26;;;;;;;4.10;3.63;;;16.70;99.90;;;;;;5072931;28;20626;-62
2022/09/05 07:22:11;;;;;;;3.93;3.63;;;17.00;99.90;;;;;;5073154;28;20518;-62
2022/09/05 07:24:41;;;;;;;3.80;3.50;;;17.00;99.90;;;;;;5073130;28;20447;-62
2022/09/05 07:27:10;;;;;;;5.33;3.83;;;17.10;99.90;;;;;;5073000;28;20453;-61
2022/09/05 07:29:42;;;;;;;4.60;4.20;;;17.20;99.90;;;;;;5073042;28;20447;-61
2022/09/05 07:32:14;;;;;;;8.13;3.80;;;17.10;99.90;;;;;;5073041;28;20447;-62
2022/09/05 07:34:46;;;;;;;5.60;3.83;;;17.20;99.90;;;;;;5072954;28;20538;-62
2022/09/05 07:37:19;;;;;;;4.57;4.13;;;17.60;99.90;;;;;;5072810;28;20458;-61
2022/09/05 07:39:51;;;;;;;4.33;3.70;;;17.80;99.90;;;;;;5071663;28;20452;-62
2022/09/05 07:42:24;;;;;;;3.43;3.20;;;18.00;99.90;;;;;;5072970;28;20577;-62
2022/09/05 07:44:55;;;;;;;4.40;4.00;;;18.10;99.90;;;;;;5072490;28;20448;-62
2022/09/05 07:47:27;;;;;;;4.50;4.10;;;18.20;99.90;;;;;;5072514;28;20448;-63
2022/09/05 07:49:58;;;;;;;4.07;3.50;;;18.10;99.90;;;;;;5072725;28;20462;-62
2022/09/05 07:52:26;;;;;;;4.23;3.93;;;18.20;99.90;;;;;;5072659;28;20451;-62
2022/09/05 07:54:57;;;;;;;4.10;3.70;;;18.20;99.90;;;;;;5073041;28;20455;-62
2022/09/05 07:57:27;;;;;;;4.10;3.73;;;18.10;99.90;;;;;;5072424;28;20483;-61
2022/09/05 07:59:57;;;;;;;4.13;3.73;;;17.90;99.90;;;;;;5072692;28;20884;-62
2022/09/05 08:02:23;;;;;;;4.60;4.03;;;18.10;99.90;;;;;;5072376;28;20482;-62
2022/09/05 08:04:50;;;;;;;8.53;4.27;;;18.20;99.90;;;;;;5072435;28;20447;-62
2022/09/05 08:07:22;;;;;;;3.83;3.63;;;18.30;99.90;;;;;;5072216;28;20461;-62
2022/09/05 08:09:51;;;;;;;4.43;3.67;;;18.30;99.90;;;;;;5072462;28;20451;-62
2022/09/05 08:12:23;;;;;;;6.80;6.20;;;18.50;99.90;;;;;;5072548;28;20550;-62
2022/09/05 08:15:02;;;;;;;6.23;4.13;;;18.60;99.90;;;;;;5071535;28;20444;-62
2022/09/05 08:17:30;;;;;;;4.93;4.60;;;18.40;99.90;;;;;;5067212;28;20534;-63
2022/09/05 08:20:11;;;;;;;5.63;4.77;;;18.60;99.90;;;;;;5072284;28;20450;-63
2022/09/05 08:22:47;;;;;;;5.37;4.47;;;18.60;99.90;;;;;;5052399;28;20491;-60
2022/09/05 08:25:16;;;;;;;4.70;4.30;;;18.50;99.90;;;;;;5054794;28;20472;-59
2022/09/05 08:27:56;;;;;;;5.67;4.47;;;18.70;99.90;;;;;;5067624;28;20452;-63
2022/09/05 08:30:23;;;;;;;4.30;3.77;;;18.80;99.90;;;;;;5051972;28;20817;-63
2022/09/05 08:32:58;;;;;;;3.90;3.70;;;19.10;99.90;;;;;;5065902;28;20462;-62
2022/09/05 08:35:29;;;;;;;4.60;3.90;;;19.00;99.90;;;;;;5072286;28;20451;-63
2022/09/05 08:37:58;;;;;;;4.67;4.23;;;19.00;99.90;;;;;;5070226;28;20513;-63
2022/09/05 08:40:30;;;;;;;4.57;4.10;;;19.00;99.90;;;;;;5063669;28;20456;-63
2022/09/05 08:43:02;;;;;;;8.07;4.60;;;19.10;99.90;;;;;;5070337;28;20542;-61
2022/09/05 08:45:38;;;;;;;6.00;4.40;;;19.00;99.90;;;;;;5070527;28;20452;-63
2022/09/05 08:48:16;;;;;;;4.57;4.17;;;19.10;99.90;;;;;;5070078;28;20475;-63
2022/09/05 08:51:00;;;;;;;8.13;4.50;;;19.40;99.90;;;;;;5051664;28;20632;-60
2022/09/05 08:53:41;;;;;;;4.50;4.03;;;19.60;99.90;;;;;;5069901;28;20527;-59
2022/09/05 08:56:15;;;;;;;6.03;3.80;;;19.70;99.90;;;;;;5061151;28;20458;-59
2022/09/05 08:58:55;;;;;;;7.13;4.47;;;20.00;99.90;;;;;;5054002;28;20194;-59
2022/09/05 09:01:30;;;;;;;4.00;3.70;;;20.30;99.90;;;;;;5070400;28;20478;-59
2022/09/05 09:04:11;;;;;;;3.87;3.67;;;20.30;99.90;;;;;;5054943;28;20451;-61
2022/09/05 09:07:05;;;;;;;4.50;3.47;;;20.50;99.90;;;;;;5063665;28;20543;-58
2022/09/05 09:09:41;;;;;;;4.70;4.33;;;20.20;99.90;;;;;;5056173;28;20822;-59
2022/09/05 09:12:14;;;;;;;5.30;4.37;;;20.20;99.90;;;;;;5072910;28;20545;-58
2022/09/05 09:14:53;;;;;;;4.80;3.70;;;20.40;99.90;;;;;;5063958;28;20458;-58
2022/09/05 09:17:27;;;;;;;3.90;3.53;;;20.40;99.90;;;;;;5055354;28;20452;-58
2022/09/05 09:20:11;;;;;;;4.20;3.80;;;20.50;99.90;;;;;;5054669;28;20538;-59
2022/09/05 09:22:42;;;;;;;4.00;3.60;;;20.60;99.90;;;;;;5060186;28;20247;-58
2022/09/05 09:25:13;;;;;;;3.20;3.00;;;20.90;99.90;;;;;;5075368;28;20478;-62
2022/09/05 09:27:54;;;;;;;3.87;3.40;;;20.90;99.90;;;;;;5058414;28;20958;-63
2022/09/05 09:30:21;;;;;;;6.47;3.13;;;21.10;99.90;;;;;;5054757;28;20456;-58
2022/09/05 09:32:49;;;;;;;3.27;2.97;;;21.20;99.90;;;;;;5070066;28;20522;-62
2022/09/05 09:35:22;;;;;;;3.43;3.13;;;21.30;99.90;;;;;;5056955;28;20943;-60
2022/09/05 09:38:21;;;;;;;3.63;3.37;;;21.30;99.90;;;;;;5063382;28;20877;-55
2022/09/05 09:41:13;;;;;;;3.10;2.80;;;21.30;99.90;;;;;;5071134;28;20451;-58
2022/09/05 09:44:10;;;;;;;8.33;3.60;;;21.50;99.90;;;;;;5059297;28;20483;-58
2022/09/05 09:46:42;;;;;;;3.20;3.00;;;21.30;99.90;;;;;;5068540;28;20509;-58
2022/09/05 09:49:37;;;;;;;2.50;2.40;;;21.50;99.90;;;;;;5074368;28;20549;-57
2022/09/05 09:52:20;;;;;;;3.20;3.00;;;21.70;99.90;;;;;;5055511;28;20453;-60
2022/09/05 09:55:26;;;;;;;3.60;3.30;;;21.60;99.90;;;;;;5057164;28;20514;-58
2022/09/05 09:58:31;;;;;;;3.47;3.23;;;22.00;99.90;;;;;;5065284;28;20459;-60
2022/09/05 10:01:12;;;;;;;8.77;3.30;;;22.10;99.90;;;;;;5057968;28;20458;-58
2022/09/05 10:04:15;;;;;;;4.03;3.63;;;22.30;99.90;;;;;;5054351;28;20506;-59
2022/09/05 10:07:16;;;;;;;5.20;3.40;;;22.20;99.90;;;;;;5047567;28;20477;-59
2022/09/05 10:10:01;;;;;;;7.00;3.27;;;21.90;99.90;;;;;;5068580;28;20446;-61
2022/09/05 10:12:58;;;;;;;4.87;3.90;;;21.90;99.90;;;;;;5075613;28;20470;-61
2022/09/05 10:15:29;;;;;;;6.00;3.53;;;22.10;99.90;;;;;;5073662;28;20457;-61
2022/09/05 10:18:24;;;;;;;6.40;3.30;;;22.20;99.90;;;;;;5074418;28;20447;-58
2022/09/05 10:21:13;;;;;;;3.30;3.10;;;22.40;99.90;;;;;;5074289;28;20482;-62
2022/09/05 10:24:15;;;;;;;3.30;3.10;;;22.20;99.90;;;;;;5074469;28;20509;-59
2022/09/05 10:27:30;;;;;;;3.40;3.10;;;22.30;99.90;;;;;;5070186;28;20599;-58
2022/09/05 10:30:19;;;;;;;3.30;3.10;;;22.60;99.90;;;;;;5057454;28;20521;-61
2022/09/05 10:33:15;;;;;;;3.00;2.80;;;22.80;99.90;;;;;;5065773;28;20546;-61
2022/09/05 10:35:44;;;;;;;5.17;3.43;;;23.00;99.90;;;;;;5073898;28;20538;-61
2022/09/05 10:38:16;;;;;;;3.73;3.43;;;23.10;99.90;;;;;;5072761;28;20452;-61
2022/09/05 10:40:45;;;;;;;5.60;3.37;;;23.10;99.90;;;;;;5073651;28;20483;-61
2022/09/05 10:43:20;;;;;;;4.23;3.80;;;22.80;99.90;;;;;;5070697;28;20485;-61
2022/09/05 10:45:53;;;;;;;3.60;3.30;;;22.90;99.90;;;;;;5073573;28;20439;-62
2022/09/05 10:48:27;;;;;;;4.07;3.87;;;23.00;99.90;;;;;;5072161;28;20482;-58
2022/09/05 10:51:00;;;;;;;3.33;3.13;;;23.10;99.90;;;;;;5053780;28;20458;-58
2022/09/05 10:53:35;;;;;;;4.00;3.60;;;23.00;99.90;;;;;;5060259;28;20466;-60
2022/09/05 10:56:08;;;;;;;3.50;3.20;;;22.70;99.90;;;;;;5071823;28;20962;-60
2022/09/05 10:58:48;;;;;;;3.93;3.70;;;23.10;99.90;;;;;;5063020;28;20443;-60
2022/09/05 11:01:27;;;;;;;4.20;3.67;;;22.80;99.90;;;;;;5073415;28;20451;-59
2022/09/05 11:04:03;;;;;;;4.73;4.00;;;22.90;99.90;;;;;;5072689;28;20447;-59
2022/09/05 11:06:50;;;;;;;3.50;3.40;;;23.20;99.90;;;;;;5068162;28;20454;-60
2022/09/05 11:09:28;;;;;;;7.10;3.20;;;23.30;99.90;;;;;;5067042;28;20452;-59
2022/09/05 11:12:05;;;;;;;3.40;3.10;;;23.30;99.90;;;;;;5072520;28;20811;-61
2022/09/05 11:14:43;;;;;;;4.23;3.50;;;23.10;99.90;;;;;;5070725;28;20455;-61
2022/09/05 11:17:18;;;;;;;4.30;3.90;;;23.40;99.90;;;;;;5071788;28;20546;-60
2022/09/05 11:19:55;;;;;;;3.80;3.60;;;23.30;99.90;;;;;;5070990;28;20457;-61
2022/09/05 11:22:24;;;;;;;3.97;3.67;;;23.40;99.90;;;;;;5071579;28;20467;-58
2022/09/05 11:24:55;;;;;;;4.23;3.60;;;23.50;99.90;;;;;;5071753;28;20454;-61
2022/09/05 11:27:30;;;;;;;3.50;3.30;;;23.50;99.90;;;;;;5075156;28;20455;-61
2022/09/05 11:30:01;;;;;;;4.00;3.70;;;23.60;99.90;;;;;;5072157;28;20886;-60
2022/09/05 11:33:04;;;;;;;4.93;4.53;;;23.70;99.90;;;;;;5069729;28;20462;-62
2022/09/05 11:35:36;;;;;;;5.10;4.70;;;23.70;99.90;;;;;;5071741;28;20497;-61
2022/09/05 11:38:41;;;;;;;4.03;3.73;;;23.40;99.90;;;;;;5073048;28;20505;-59
2022/09/05 11:41:48;;;;;;;4.43;4.03;;;23.50;99.90;;;;;;5071734;28;20451;-59
2022/09/05 11:44:33;;;;;;;4.47;4.27;;;23.60;99.90;;;;;;5069501;28;20455;-58
2022/09/05 11:47:25;;;;;;;4.13;3.70;;;23.90;99.90;;;;;;5072834;28;20845;-58
2022/09/05 11:50:24;;;;;;;4.10;3.87;;;24.10;99.90;;;;;;5052551;28;20473;-59
2022/09/05 11:53:24;;;;;;;4.63;4.27;;;23.90;99.90;;;;;;5068979;28;20461;-58
2022/09/05 11:56:33;;;;;;;4.20;3.90;;;23.80;99.90;;;;;;5063629;28;20921;-58
2022/09/05 11:59:18;;;;;;;4.07;3.77;;;23.90;99.90;;;;;;5073025;28;20455;-58
2022/09/05 12:01:56;;;;;;;4.17;3.87;;;24.00;99.90;;;;;;5072465;28;20526;-58
2022/09/05 12:04:42;;;;;;;4.10;3.80;;;23.70;99.90;;;;;;5072264;28;20439;-58
2022/09/05 12:07:18;;;;;;;4.30;4.00;;;23.80;99.90;;;;;;5072465;28;20794;-60
2022/09/05 12:09:56;;;;;;;4.47;4.17;;;23.90;99.90;;;;;;5071779;28;20452;-59
2022/09/05 12:12:31;;;;;;;4.20;3.90;;;23.70;99.90;;;;;;5072401;28;20448;-59
2022/09/05 12:15:22;;;;;;;4.73;4.33;;;24.30;99.90;;;;;;5074689;28;20455;-59
2022/09/05 12:17:59;;;;;;;5.33;4.30;;;24.20;99.90;;;;;;5070957;28;20455;-60
2022/09/05 12:20:31;;;;;;;5.00;3.77;;;24.10;99.90;;;;;;5061336;28;20911;-61
2022/09/05 12:23:02;;;;;;;5.93;4.13;;;24.00;99.90;;;;;;5052372;28;20990;-61
2022/09/05 12:25:36;;;;;;;3.80;3.50;;;23.80;99.90;;;;;;5063389;28;20447;-60
2022/09/05 12:28:06;;;;;;;4.07;3.77;;;23.70;99.90;;;;;;5052408;28;20467;-63
2022/09/05 12:30:36;;;;;;;4.30;4.10;;;23.60;99.90;;;;;;5066958;28;20456;-63
2022/09/05 12:33:19;;;;;;;5.40;3.87;;;23.40;99.90;;;;;;5058971;28;20460;-63
2022/09/05 12:35:51;;;;;;;3.97;3.70;;;23.80;99.90;;;;;;5052494;28;20552;-62
2022/09/05 12:38:32;;;;;;;4.40;4.10;;;23.60;99.90;;;;;;5062926;28;20456;-62
2022/09/05 12:41:07;;;;;;;4.20;3.90;;;23.40;99.90;;;;;;5070224;28;20451;-64
2022/09/05 12:43:34;;;;;;;5.07;4.67;;;23.30;99.90;;;;;;5060972;28;20484;-61
2022/09/05 12:46:06;;;;;;;4.30;3.90;;;23.40;99.90;;;;;;5067727;28;20451;-60
2022/09/05 12:48:38;;;;;;;5.00;4.60;;;23.60;99.90;;;;;;5075632;28;20885;-60
2022/09/05 12:51:08;;;;;;;4.10;3.90;;;23.80;99.90;;;;;;5056435;28;20488;-63
2022/09/05 12:53:43;;;;;;;4.37;4.07;;;23.80;99.90;;;;;;5061567;28;20546;-63
2022/09/05 12:56:21;;;;;;;4.67;4.37;;;23.70;99.90;;;;;;5073667;28;20806;-63
2022/09/05 12:58:50;;;;;;;4.00;3.80;;;23.70;99.90;;;;;;5074081;28;20863;-60
2022/09/05 13:01:27;;;;;;;3.93;3.73;;;23.70;99.90;;;;;;5070822;28;20793;-60
2022/09/05 13:03:59;;;;;;;4.30;3.93;;;23.70;99.90;;;;;;5074881;28;20505;-62
2022/09/05 13:06:30;;;;;;;5.73;4.60;;;23.90;99.90;;;;;;5074855;28;20474;-60
2022/09/05 13:09:01;;;;;;;4.43;4.23;;;23.90;99.90;;;;;;5074454;28;20485;-61
2022/09/05 13:11:34;;;;;;;3.87;3.63;;;24.00;99.90;;;;;;5071431;28;20447;-61
2022/09/05 13:14:07;;;;;;;5.10;4.10;;;24.10;99.90;;;;;;5073750;28;20479;-62
2022/09/05 13:16:38;;;;;;;5.33;4.43;;;24.30;99.90;;;;;;5075431;28;20444;-61
2022/09/05 13:19:11;;;;;;;4.20;3.90;;;24.30;99.90;;;;;;5075435;28;20990;-61
2022/09/05 13:21:43;;;;;;;4.27;3.97;;;24.30;99.90;;;;;;5075004;28;20784;-61
2022/09/05 13:24:13;;;;;;;4.40;4.10;;;24.20;99.90;;;;;;5072602;28;20478;-62
2022/09/05 13:26:49;;;;;;;3.90;3.70;;;24.40;99.90;;;;;;5064993;28;20886;-63
2022/09/05 13:29:19;;;;;;;4.00;3.70;;;24.20;99.90;;;;;;5063774;28;20447;-59
2022/09/05 13:32:08;;;;;;;4.83;4.33;;;24.30;99.90;;;;;;5075039;28;20447;-59
2022/09/05 13:34:40;;;;;;;5.07;4.63;;;24.40;99.90;;;;;;5074434;28;20505;-60
2022/09/05 13:37:13;;;;;;;4.10;3.80;;;24.60;99.90;;;;;;5073782;28;20447;-58
2022/09/05 13:39:48;;;;;;;4.40;4.20;;;24.50;99.90;;;;;;5063551;28;20797;-55
2022/09/05 13:42:19;;;;;;;5.73;4.50;;;24.20;99.90;;;;;;5073265;28;21009;-59
2022/09/05 13:44:51;;;;;;;4.33;4.03;;;24.00;99.90;;;;;;5071381;28;20454;-58
2022/09/05 13:47:33;;;;;;;4.10;3.90;;;24.10;99.90;;;;;;5072619;28;20443;-58
2022/09/05 13:50:12;;;;;;;3.83;3.63;;;24.00;99.90;;;;;;5073938;28;20447;-58
2022/09/05 13:52:43;;;;;;;4.93;4.43;;;23.90;99.90;;;;;;5074871;28;20451;-58